Midlothian, Virginia
Current Conditions -  °F | °C
As of 12:55 PM on Thursday 18 Dec 2014 (Local Time) from KFCI Reporting Station
Clear Clear  
Wind Chill: 42°   Ceiling: Unl
Heat Index: 46°   Visibility: 10mi
Dew Point: 19°   Wind: 9mph
Humidity: 34%   Direction: 280°W
Pressure: 30.12"   Gusts: NA
Location:  37.51°N, 77.65°W
Report Text: KFCI 181755Z AUTO 28008KT 10SM CLR 08/M07 A3012 RMK AO1 10080 21030 57024
Loading
Personal Weather Stations






























Interactive Weather Map New forecast layout! Learn more

10-Day Weather Forecast

Advertisements
Track Severe Weather on mobile